Time;durP1;ratioP1;P1;durP2;ratioP2;P2;SDS_P1;SDS_P2;PMS_P1;PMS_P2;Temp;Humidity;BMP_temperature;BMP_pressure;BME280_temperature;BME280_humidity;BME280_pressure;Samples;Min_cycle;Max_cycle;Signal;HPM_P1;HPM_P2
2023/04/04 00:00:47;;;;;;;6.63;2.40;;;;;;;1.88;100.00;102897.91;5059894;28;20055;-59
2023/04/04 00:03:19;;;;;;;8.00;2.60;;;;;;;1.89;100.00;102888.44;5056705;28;20060;-59
2023/04/04 00:05:48;;;;;;;6.75;2.20;;;;;;;1.84;100.00;102894.47;5057398;28;20106;-59
2023/04/04 00:08:16;;;;;;;5.53;2.40;;;;;;;1.76;100.00;102893.56;5056092;28;20032;-58
2023/04/04 00:10:44;;;;;;;5.63;2.55;;;;;;;1.72;100.00;102894.41;5057662;28;20045;-59
2023/04/04 00:13:12;;;;;;;8.40;2.65;;;;;;;1.67;100.00;102890.94;5062275;28;20097;-59
2023/04/04 00:15:40;;;;;;;9.20;3.00;;;;;;;1.77;100.00;102894.44;5059566;28;20052;-59
2023/04/04 00:18:11;;;;;;;7.45;2.42;;;;;;;1.71;100.00;102889.22;5060132;28;20036;-60
2023/04/04 00:20:41;;;;;;;6.10;2.50;;;;;;;1.71;100.00;102886.63;5064998;28;20048;-60
2023/04/04 00:23:10;;;;;;;6.47;2.47;;;;;;;1.75;100.00;102884.03;5059352;28;20055;-60
2023/04/04 00:25:39;;;;;;;5.90;2.55;;;;;;;1.72;100.00;102883.16;5062244;28;20052;-60
2023/04/04 00:28:07;;;;;;;8.15;2.72;;;;;;;1.64;100.00;102883.13;5061363;28;20538;-59
2023/04/04 00:30:36;;;;;;;7.93;2.63;;;;;;;1.63;100.00;102884.84;5061312;28;20441;-60
2023/04/04 00:33:05;;;;;;;6.40;2.33;;;;;;;1.57;100.00;102883.94;5055722;28;20036;-60
2023/04/04 00:35:33;;;;;;;6.75;2.35;;;;;;;1.53;100.00;102875.28;5057933;28;20052;-60
2023/04/04 00:38:03;;;;;;;6.93;2.95;;;;;;;1.52;100.00;102873.56;5059231;28;20048;-61
2023/04/04 00:40:31;;;;;;;7.00;2.92;;;;;;;1.51;100.00;102877.88;5060717;28;20044;-61
2023/04/04 00:43:00;;;;;;;7.45;2.60;;;;;;;1.48;100.00;102879.59;5072303;28;20553;-59
2023/04/04 00:45:30;;;;;;;6.38;2.67;;;;;;;1.51;100.00;102869.22;5073078;28;20052;-59
2023/04/04 00:47:59;;;;;;;11.23;3.20;;;;;;;1.48;100.00;102871.81;5071219;28;20045;-59
2023/04/04 00:50:27;;;;;;;8.32;3.20;;;;;;;1.49;100.00;102866.63;5069749;28;20600;-60
2023/04/04 00:52:56;;;;;;;8.15;2.58;;;;;;;1.50;100.00;102862.28;5073527;28;20052;-59
2023/04/04 00:55:26;;;;;;;6.63;2.63;;;;;;;1.49;100.00;102865.78;5068284;28;20049;-60
2023/04/04 00:57:54;;;;;;;7.50;2.97;;;;;;;1.41;100.00;102865.72;5063584;28;20419;-60
2023/04/04 01:00:23;;;;;;;6.82;2.63;;;;;;;1.39;100.00;102867.44;5062082;28;20041;-60
2023/04/04 01:02:53;;;;;;;9.40;3.10;;;;;;;1.30;100.00;102862.22;5070823;28;20049;-59
2023/04/04 01:05:21;;;;;;;6.80;2.97;;;;;;;1.29;100.00;102863.06;5073040;28;20045;-60
2023/04/04 01:07:50;;;;;;;7.50;2.80;;;;;;;1.30;100.00;102869.97;5073316;28;20042;-60
2023/04/04 01:10:18;;;;;;;6.70;3.13;;;;;;;1.27;100.00;102864.75;5073296;28;20033;-60
2023/04/04 01:12:48;;;;;;;7.63;3.15;;;;;;;1.28;100.00;102859.59;5066961;28;20499;-60
2023/04/04 01:15:16;;;;;;;6.43;2.47;;;;;;;1.32;100.00;102857.88;5055501;28;20094;-60
2023/04/04 01:17:44;;;;;;;6.63;3.00;;;;;;;1.22;100.00;102848.34;5056908;28;21105;-59
2023/04/04 01:20:16;;;;;;;7.80;3.03;;;;;;;1.20;100.00;102847.44;5058977;28;20038;-60
2023/04/04 01:22:47;;;;;;;7.07;3.00;;;;;;;1.16;100.00;102852.63;5061152;28;20072;-60
2023/04/04 01:25:16;;;;;;;7.97;3.20;;;;;;;1.09;100.00;102850.84;5057981;28;20502;-60
2023/04/04 01:27:46;;;;;;;7.57;2.83;;;;;;;1.06;100.00;102848.22;5057405;28;20103;-60
2023/04/04 01:30:16;;;;;;;6.40;2.47;;;;;;;1.04;100.00;102851.66;5058913;28;20506;-60
2023/04/04 01:32:53;;;;;;;6.18;3.03;;;;;;;1.01;100.00;102848.19;5061423;28;20495;-60
2023/04/04 01:35:29;;;;;;;7.00;2.65;;;;;;;0.98;100.00;102852.47;5058876;28;20059;-59
2023/04/04 01:38:08;;;;;;;9.20;3.00;;;;;;;1.04;100.00;102846.47;5054126;28;20033;-60
2023/04/04 01:40:38;;;;;;;8.07;3.00;;;;;;;0.95;100.00;102848.13;5058273;28;20056;-60
2023/04/04 01:43:08;;;;;;;9.25;3.25;;;;;;;0.94;100.00;102859.38;5061087;28;20463;-59
2023/04/04 01:45:37;;;;;;;7.90;3.33;;;;;;;0.92;100.00;102857.63;5058890;28;20458;-60
2023/04/04 01:48:05;;;;;;;7.10;3.15;;;;;;;0.89;100.00;102861.06;5057750;28;20388;-59
2023/04/04 01:50:33;;;;;;;8.02;2.97;;;;;;;0.91;100.00;102861.06;5064802;28;20591;-60
2023/04/04 01:53:04;;;;;;;6.50;3.25;;;;;;;0.93;100.00;102851.59;5059780;28;21994;-60
2023/04/04 01:55:34;;;;;;;8.60;3.20;;;;;;;0.94;100.00;102858.50;5059757;28;20106;-60
2023/04/04 01:58:02;;;;;;;8.35;3.10;;;;;;;0.89;100.00;102860.22;5056157;28;20155;-60
2023/04/04 02:00:32;;;;;;;7.78;2.83;;;;;;;0.90;100.00;102862.81;5054849;28;20049;-60
2023/04/04 02:03:01;;;;;;;9.00;3.00;;;;;;;0.89;100.00;102861.06;5058988;28;20041;-61
2023/04/04 02:05:29;;;;;;;10.60;3.40;;;;;;;0.79;100.00;102864.44;5055463;28;20041;-60
2023/04/04 02:07:57;;;;;;;7.15;2.90;;;;;;;0.77;100.00;102861.81;5059435;28;20048;-60
2023/04/04 02:10:25;;;;;;;8.10;2.60;;;;;;;0.85;100.00;102861.91;5058966;28;20080;-60
2023/04/04 02:12:53;;;;;;;6.55;2.83;;;;;;;0.78;100.00;102860.13;5058155;28;20388;-59
2023/04/04 02:15:22;;;;;;;7.85;2.90;;;;;;;0.71;100.00;102853.13;5060789;28;20044;-60
2023/04/04 02:17:52;;;;;;;8.15;3.50;;;;;;;0.63;100.00;102861.72;5061858;28;20648;-60
2023/04/04 02:20:20;;;;;;;6.32;3.13;;;;;;;0.59;100.00;102861.69;5061735;28;20470;-60
2023/04/04 02:22:52;;;;;;;9.35;3.42;;;;;;;0.58;100.00;102865.13;5066127;28;20040;-60
2023/04/04 02:25:21;;;;;;;12.18;3.47;;;;;;;0.57;100.00;102864.25;5061461;28;20434;-60
2023/04/04 02:27:50;;;;;;;7.35;3.42;;;;;;;0.58;100.00;102860.81;5060924;28;20119;-60
2023/04/04 02:30:19;;;;;;;10.05;3.72;;;;;;;0.60;100.00;102864.28;5062478;28;20037;-60
2023/04/04 02:32:47;;;;;;;10.05;3.47;;;;;;;0.66;100.00;102863.47;5064389;28;20051;-58
2023/04/04 02:35:17;;;;;;;9.30;3.28;;;;;;;0.64;100.00;102862.56;5055271;28;20048;-59
2023/04/04 02:37:46;;;;;;;6.82;3.17;;;;;;;0.57;100.00;102859.06;5060393;28;20037;-60
2023/04/04 02:40:15;;;;;;;8.82;3.47;;;;;;;0.57;100.00;102865.97;5062452;28;20060;-59
2023/04/04 02:42:45;;;;;;;6.97;3.00;;;;;;;0.56;100.00;102857.34;5063744;28;20075;-60
2023/04/04 02:45:13;;;;;;;6.18;3.33;;;;;;;0.50;100.00;102860.75;5061293;28;20052;-59
2023/04/04 02:47:42;;;;;;;7.97;3.50;;;;;;;0.44;100.00;102850.31;5062047;28;20076;-60
2023/04/04 02:50:11;;;;;;;7.13;3.55;;;;;;;0.47;100.00;102850.34;5065035;28;20084;-60
2023/04/04 02:52:43;;;;;;;5.75;2.92;;;;;;;0.44;100.00;102857.25;5063951;28;20040;-60
2023/04/04 02:55:11;;;;;;;7.93;3.38;;;;;;;0.38;100.00;102844.22;5063782;28;20041;-59
2023/04/04 02:57:39;;;;;;;7.97;3.17;;;;;;;0.37;100.00;102847.66;5070982;28;20523;-60
2023/04/04 03:00:11;;;;;;;8.90;3.40;;;;;;;0.40;100.00;102852.88;5075493;28;20111;-59
2023/04/04 03:02:39;;;;;;;6.50;3.17;;;;;;;0.49;100.00;102852.94;5075601;28;20094;-59
2023/04/04 03:05:08;;;;;;;7.80;3.67;;;;;;;0.40;100.00;102848.56;5075471;28;20048;-59
2023/04/04 03:07:37;;;;;;;10.25;3.50;;;;;;;0.43;100.00;102846.00;5075370;28;20044;-59
2023/04/04 03:10:07;;;;;;;6.22;3.22;;;;;;;0.35;100.00;102844.19;5071669;28;20377;-59
2023/04/04 03:12:35;;;;;;;7.55;3.70;;;;;;;0.32;100.00;102843.31;5071994;28;20052;-60
2023/04/04 03:15:06;;;;;;;8.10;3.60;;;;;;;0.35;100.00;102842.47;5053611;28;20053;-59
2023/04/04 03:17:34;;;;;;;8.52;3.25;;;;;;;0.32;100.00;102835.53;5051556;28;20053;-59
2023/04/04 03:20:05;;;;;;;7.97;4.05;;;;;;;0.26;100.00;102837.19;5053354;28;20082;-59
2023/04/04 03:22:33;;;;;;;8.00;3.63;;;;;;;0.35;100.00;102839.03;5055224;28;20045;-59
2023/04/04 03:25:02;;;;;;;8.95;4.10;;;;;;;0.42;100.00;102839.06;5056810;28;20091;-59
2023/04/04 03:27:32;;;;;;;13.43;3.90;;;;;;;0.37;100.00;102837.31;5056862;28;20086;-59
2023/04/04 03:30:01;;;;;;;6.95;3.22;;;;;;;0.38;100.00;102831.28;5054459;28;20044;-59
2023/04/04 03:32:29;;;;;;;8.60;3.40;;;;;;;0.28;100.00;102840.69;5060041;28;20053;-60
2023/04/04 03:34:57;;;;;;;7.82;3.60;;;;;;;0.23;100.00;102832.88;5060298;28;20115;-59
2023/04/04 03:37:25;;;;;;;10.15;3.85;;;;;;;0.22;100.00;102828.56;5065367;28;20044;-59
2023/04/04 03:39:53;;;;;;;6.88;3.80;;;;;;;0.16;100.00;102831.06;5066066;28;20120;-60
2023/04/04 03:42:25;;;;;;;7.85;3.78;;;;;;;0.14;100.00;102819.84;5063346;28;20385;-60
2023/04/04 03:44:55;;;;;;;8.65;3.80;;;;;;;0.07;100.00;102824.09;5062905;28;20046;-60
2023/04/04 03:47:23;;;;;;;8.93;4.03;;;;;;;0.07;100.00;102816.31;5056835;28;20067;-60
2023/04/04 03:49:51;;;;;;;9.07;3.70;;;;;;;0.02;100.00;102810.22;5059926;28;20037;-60
2023/04/04 03:52:19;;;;;;;9.00;3.90;;;;;;;0.00;100.00;102814.53;5057399;28;20056;-60
2023/04/04 03:54:47;;;;;;;10.85;3.85;;;;;;;-0.03;100.00;102817.06;5061316;28;20063;-59
2023/04/04 03:57:15;;;;;;;8.30;3.38;;;;;;;0.08;100.00;102823.25;5060469;28;20080;-59
2023/04/04 03:59:43;;;;;;;8.05;3.47;;;;;;;0.08;100.00;102819.78;5053600;28;20064;-60
2023/04/04 04:02:13;;;;;;;8.93;3.63;;;;;;;0.06;100.00;102824.94;5058352;28;20029;-60
2023/04/04 04:04:41;;;;;;;9.25;3.58;;;;;;;-0.03;100.00;102824.81;5062058;28;20059;-60
2023/04/04 04:07:09;;;;;;;9.18;4.40;;;;;;;-0.09;100.00;102822.19;5061794;28;20049;-60
2023/04/04 04:09:37;;;;;;;8.65;3.72;;;;;;;-0.11;100.00;102829.06;5065193;28;20048;-59
2023/04/04 04:12:06;;;;;;;7.82;3.53;;;;;;;-0.10;100.00;102828.22;5068375;28;20066;-60
2023/04/04 04:14:34;;;;;;;8.18;3.95;;;;;;;-0.15;100.00;102832.47;5059034;28;20053;-59
2023/04/04 04:17:02;;;;;;;8.88;3.80;;;;;;;-0.19;100.00;102829.84;5066503;28;20075;-59
2023/04/04 04:19:32;;;;;;;8.00;3.75;;;;;;;-0.22;100.00;102832.41;5064820;28;20049;-59
2023/04/04 04:22:00;;;;;;;8.98;3.80;;;;;;;-0.25;100.00;102832.34;5060106;28;20383;-59
2023/04/04 04:24:28;;;;;;;9.57;3.83;;;;;;;-0.23;100.00;102830.66;5064892;28;20128;-59
2023/04/04 04:26:56;;;;;;;9.02;3.92;;;;;;;-0.29;100.00;102825.41;5055546;28;20037;-59
2023/04/04 04:29:24;;;;;;;8.15;3.72;;;;;;;-0.37;100.00;102827.03;5056807;28;20499;-60
2023/04/04 04:31:52;;;;;;;11.30;3.80;;;;;;;-0.28;100.00;102829.72;5062515;28;20044;-61
2023/04/04 04:34:20;;;;;;;8.32;3.88;;;;;;;-0.29;100.00;102830.56;5059130;28;20055;-60
2023/04/04 04:36:51;;;;;;;7.35;3.65;;;;;;;-0.35;100.00;102833.97;5055901;28;20491;-59
2023/04/04 04:39:19;;;;;;;7.60;3.72;;;;;;;-0.39;100.00;102831.31;5058485;28;20101;-59
2023/04/04 04:41:47;;;;;;;8.32;3.70;;;;;;;-0.39;100.00;102828.75;5060786;28;20427;-59
2023/04/04 04:44:15;;;;;;;11.18;4.13;;;;;;;-0.36;100.00;102831.34;5069983;28;20173;-60
2023/04/04 04:46:44;;;;;;;8.15;3.47;;;;;;;-0.38;100.00;102830.47;5073568;28;20078;-59
2023/04/04 04:49:12;;;;;;;9.05;3.70;;;;;;;-0.40;100.00;102829.59;5073159;28;20094;-60
2023/04/04 04:51:41;;;;;;;9.25;3.60;;;;;;;-0.37;100.00;102830.50;5073211;28;20070;-60
2023/04/04 04:54:10;;;;;;;8.13;4.20;;;;;;;-0.36;100.00;102818.44;5070567;28;20053;-60
2023/04/04 04:56:38;;;;;;;9.77;3.88;;;;;;;-0.41;100.00;102820.09;5063580;28;20096;-59
2023/04/04 04:59:07;;;;;;;9.63;3.80;;;;;;;-0.46;100.00;102822.63;5059434;28;20553;-60
2023/04/04 05:01:38;;;;;;;8.50;3.67;;;;;;;-0.38;100.00;102822.72;5054313;28;20044;-58
2023/04/04 05:04:07;;;;;;;7.85;3.65;;;;;;;-0.39;100.00;102821.00;5059581;28;20052;-59
2023/04/04 05:06:35;;;;;;;9.32;4.03;;;;;;;-0.43;100.00;102825.25;5063780;28;20529;-58
2023/04/04 05:09:03;;;;;;;9.48;3.80;;;;;;;-0.45;100.00;102826.94;5064270;28;20116;-58
2023/04/04 05:11:33;;;;;;;12.35;4.07;;;;;;;-0.47;100.00;102830.38;5059300;28;20040;-58
2023/04/04 05:14:01;;;;;;;8.25;3.70;;;;;;;-0.36;100.00;102836.53;5060389;28;20106;-59
2023/04/04 05:16:29;;;;;;;8.70;3.97;;;;;;;-0.43;100.00;102838.16;5056317;28;20519;-58
2023/04/04 05:18:58;;;;;;;8.10;3.97;;;;;;;-0.45;100.00;102831.22;5058372;28;20049;-58
2023/04/04 05:21:26;;;;;;;10.73;3.67;;;;;;;-0.55;100.00;102844.03;5061189;28;20139;-58
2023/04/04 05:23:55;;;;;;;10.73;3.75;;;;;;;-0.55;100.00;102838.88;5058980;28;20189;-58
2023/04/04 05:26:23;;;;;;;9.05;4.38;;;;;;;-0.54;100.00;102850.94;5057477;28;20048;-58
2023/04/04 05:28:55;;;;;;;10.73;4.00;;;;;;;-0.55;100.00;102840.59;5058306;28;20045;-58
2023/04/04 05:31:23;;;;;;;7.65;3.40;;;;;;;-0.59;100.00;102844.84;5061043;28;20131;-58
2023/04/04 05:33:52;;;;;;;11.32;3.95;;;;;;;-0.63;100.00;102850.81;5065347;28;20040;-58
2023/04/04 05:36:23;;;;;;;10.20;4.13;;;;;;;-0.69;100.00;102856.78;5058073;28;20052;-58
2023/04/04 05:38:54;;;;;;;8.45;3.55;;;;;;;-0.62;100.00;102856.88;5059248;28;20044;-58
2023/04/04 05:41:22;;;;;;;7.10;3.70;;;;;;;-0.66;100.00;102855.09;5055031;28;20041;-58
2023/04/04 05:43:53;;;;;;;10.63;3.83;;;;;;;-0.66;100.00;102855.97;5058148;28;20054;-58
2023/04/04 05:46:22;;;;;;;6.90;3.47;;;;;;;-0.64;100.00;102855.97;5059366;28;20396;-58
2023/04/04 05:48:51;;;;;;;8.50;3.60;;;;;;;-0.67;100.00;102856.78;5062244;28;20117;-59
2023/04/04 05:51:19;;;;;;;7.70;3.30;;;;;;;-0.69;100.00;102853.34;5059132;28;20485;-58
2023/04/04 05:53:50;;;;;;;9.40;3.50;;;;;;;-0.64;100.00;102850.81;5063861;28;20119;-58
2023/04/04 05:56:18;;;;;;;6.82;3.13;;;;;;;-0.64;100.00;102856.88;5059537;28;20044;-58
2023/04/04 05:58:46;;;;;;;8.48;3.03;;;;;;;-0.65;100.00;102856.84;5062519;28;20511;-58
2023/04/04 06:01:14;;;;;;;8.43;3.42;;;;;;;-0.65;100.00;102862.88;5060049;28;20040;-58
2023/04/04 06:03:44;;;;;;;8.05;3.38;;;;;;;-0.62;100.00;102868.06;5058652;28;20444;-58
2023/04/04 06:06:12;;;;;;;9.10;3.30;;;;;;;-0.61;100.00;102858.63;5057652;28;20036;-58
2023/04/04 06:08:40;;;;;;;6.97;3.00;;;;;;;-0.58;100.00;102858.66;5062922;28;20823;-58
2023/04/04 06:11:21;;;;;;;7.15;3.28;;;;;;;-0.53;100.00;102851.84;5060250;28;20036;-58
2023/04/04 06:13:50;;;;;;;6.45;2.90;;;;;;;-0.42;100.00;102859.75;5054187;28;20040;-58
2023/04/04 06:16:18;;;;;;;8.68;3.85;;;;;;;-0.39;100.00;102864.94;5071286;28;20070;-58
2023/04/04 06:18:50;;;;;;;10.52;3.22;;;;;;;-0.36;100.00;102867.56;5061871;28;20121;-58
2023/04/04 06:21:18;;;;;;;7.97;3.13;;;;;;;-0.31;100.00;102868.50;5058746;28;20048;-58
2023/04/04 06:23:46;;;;;;;8.05;3.17;;;;;;;-0.22;100.00;102863.44;5062442;28;20134;-58
2023/04/04 06:26:15;;;;;;;6.78;3.15;;;;;;;-0.16;100.00;102867.81;5059496;28;20168;-58
2023/04/04 06:28:49;;;;;;;8.82;3.58;;;;;;;-0.08;100.00;102867.88;5056739;28;20091;-58
2023/04/04 06:31:18;;;;;;;9.18;3.90;;;;;;;-0.02;100.00;102871.41;5057885;28;20040;-58
2023/04/04 06:33:46;;;;;;;9.70;3.38;;;;;;;0.06;100.00;102874.09;5069347;28;20053;-58
2023/04/04 06:36:16;;;;;;;10.10;3.38;;;;;;;0.09;100.00;102874.13;5070894;28;20074;-58
2023/04/04 06:38:44;;;;;;;8.45;3.50;;;;;;;0.16;100.00;102875.94;5064403;28;20058;-58
2023/04/04 06:41:12;;;;;;;9.68;3.72;;;;;;;0.28;100.00;102884.69;5070914;28;20036;-59
2023/04/04 06:43:40;;;;;;;9.73;3.80;;;;;;;0.32;100.00;102870.91;5071984;28;20541;-59
2023/04/04 06:46:09;;;;;;;7.88;3.72;;;;;;;0.40;100.00;102874.44;5067823;28;20052;-59
2023/04/04 06:48:37;;;;;;;8.82;3.55;;;;;;;0.49;100.00;102864.19;5068586;28;20110;-59
2023/04/04 06:51:06;;;;;;;11.45;3.90;;;;;;;0.58;100.00;102870.31;5060988;28;20098;-59
2023/04/04 06:53:36;;;;;;;8.68;3.50;;;;;;;0.74;100.00;102871.31;5060526;28;20040;-59
2023/04/04 06:56:04;;;;;;;8.50;3.42;;;;;;;0.84;100.00;102876.56;5061814;28;20098;-58
2023/04/04 06:58:32;;;;;;;10.10;3.95;;;;;;;0.94;100.00;102876.63;5058734;28;20129;-59
2023/04/04 07:01:01;;;;;;;8.13;3.53;;;;;;;1.10;100.00;102869.84;5056711;28;20170;-58
2023/04/04 07:03:29;;;;;;;7.47;3.47;;;;;;;1.23;100.00;102876.84;5061338;28;20475;-59
2023/04/04 07:05:57;;;;;;;9.88;3.90;;;;;;;1.32;100.00;102871.72;5063273;28;20446;-58
2023/04/04 07:08:25;;;;;;;10.35;3.85;;;;;;;1.56;100.00;102869.25;5059871;28;20640;-58
2023/04/04 07:10:58;;;;;;;7.60;3.58;;;;;;;1.60;100.00;102879.66;5060734;28;20045;-59
2023/04/04 07:13:26;;;;;;;8.18;3.53;;;;;;;1.78;100.00;102873.66;5058903;28;20379;-59
2023/04/04 07:15:54;;;;;;;7.25;3.33;;;;;;;1.88;100.00;102884.94;5061321;28;20040;-59
2023/04/04 07:18:22;;;;;;;10.85;3.50;;;;;;;1.92;100.00;102888.44;5063483;28;20130;-58
2023/04/04 07:20:50;;;;;;;6.65;3.10;;;;;;;1.99;100.00;102877.19;5062421;28;20054;-59
2023/04/04 07:23:18;;;;;;;7.68;3.30;;;;;;;2.16;100.00;102877.25;5060405;28;20443;-59
2023/04/04 07:25:49;;;;;;;7.63;3.20;;;;;;;2.28;100.00;102874.69;5062595;28;20914;-59
2023/04/04 07:28:22;;;;;;;8.68;3.30;;;;;;;2.39;100.00;102882.50;5065092;28;20496;-58
2023/04/04 07:30:50;;;;;;;7.95;3.35;;;;;;;2.57;100.00;102881.66;5062304;28;20037;-59
2023/04/04 07:33:18;;;;;;;8.30;3.35;;;;;;;2.81;100.00;102880.81;5058719;28;20380;-58
2023/04/04 07:35:47;;;;;;;5.55;2.78;;;;;;;2.83;100.00;102876.47;5061823;28;20129;-59
2023/04/04 07:38:16;;;;;;;8.73;3.30;;;;;;;2.93;100.00;102882.56;5059607;28;20040;-59
2023/04/04 07:40:44;;;;;;;7.40;3.17;;;;;;;3.09;100.00;102882.53;5060909;28;20496;-59
2023/04/04 07:43:12;;;;;;;9.43;3.10;;;;;;;3.16;100.00;102881.63;5059702;28;20035;-59
2023/04/04 07:45:41;;;;;;;6.63;3.00;;;;;;;3.30;100.00;102890.31;5059367;28;20047;-59
2023/04/04 07:48:10;;;;;;;7.05;3.20;;;;;;;3.46;100.00;102883.31;5065849;28;20511;-59
2023/04/04 07:50:38;;;;;;;7.47;3.60;;;;;;;3.61;100.00;102879.78;5060212;28;20404;-59
2023/04/04 07:53:07;;;;;;;9.30;3.40;;;;;;;3.76;100.00;102878.88;5057386;28;20086;-59
2023/04/04 07:55:35;;;;;;;9.30;3.47;;;;;;;3.89;100.00;102882.31;5060910;28;20061;-59
2023/04/04 07:58:03;;;;;;;8.32;3.42;;;;;;;4.14;100.00;102870.00;5063918;28;20137;-59
2023/04/04 08:00:33;;;;;;;7.35;3.28;;;;;;;4.33;100.00;102875.13;5063754;28;20527;-59
2023/04/04 08:03:02;;;;;;;9.10;3.63;;;;;;;4.57;97.08;102874.09;5060923;28;20032;-59
2023/04/04 08:05:31;;;;;;;8.38;3.65;;;;;;;4.78;94.18;102865.22;5059252;28;20078;-59
2023/04/04 08:07:59;;;;;;;7.55;3.63;;;;;;;4.98;98.36;102865.03;5064644;28;20044;-59
2023/04/04 08:10:27;;;;;;;7.47;3.10;;;;;;;5.15;95.00;102864.84;5067370;28;20044;-59
2023/04/04 08:12:56;;;;;;;9.35;3.70;;;;;;;5.34;92.92;102873.34;5066715;28;20064;-59
2023/04/04 08:15:24;;;;;;;8.32;3.42;;;;;;;5.48;90.98;102865.41;5063939;28;20051;-59
2023/04/04 08:17:52;;;;;;;9.63;3.50;;;;;;;5.73;89.87;102859.88;5060700;28;20090;-59
2023/04/04 08:20:22;;;;;;;7.20;3.55;;;;;;;5.96;90.10;102866.53;5066023;28;20067;-59
2023/04/04 08:22:50;;;;;;;7.97;3.70;;;;;;;6.11;86.41;102863.75;5073707;28;20040;-59
2023/04/04 08:25:18;;;;;;;7.10;3.00;;;;;;;6.31;82.70;102863.44;5066676;28;20052;-59
2023/04/04 08:27:46;;;;;;;7.78;2.53;;;;;;;6.39;75.75;102855.50;5066047;28;20044;-60
2023/04/04 08:30:18;;;;;;;6.85;2.40;;;;;;;6.62;73.95;102859.50;5065071;28;20071;-60
2023/04/04 08:32:47;;;;;;;7.20;2.50;;;;;;;6.67;72.46;102855.94;5066262;28;20048;-59
2023/04/04 08:35:15;;;;;;;6.28;2.88;;;;;;;6.89;71.61;102863.41;5057492;28;20492;-59
2023/04/04 08:37:46;;;;;;;7.70;2.28;;;;;;;6.97;66.78;102864.16;5065040;28;20036;-59
2023/04/04 08:40:14;;;;;;;8.25;3.17;;;;;;;7.18;71.42;102862.88;5066230;28;20105;-58
2023/04/04 08:42:43;;;;;;;9.00;2.83;;;;;;;7.28;67.85;102860.97;5070111;28;20076;-59
2023/04/04 08:45:12;;;;;;;7.78;3.03;;;;;;;7.39;67.80;102856.38;5060054;28;20111;-58
2023/04/04 08:47:42;;;;;;;4.68;2.53;;;;;;;7.44;68.88;102865.00;5071826;28;20106;-59
2023/04/04 08:50:10;;;;;;;5.75;2.47;;;;;;;7.64;68.23;102860.28;5072075;28;20400;-59
2023/04/04 08:52:40;;;;;;;5.90;2.65;;;;;;;7.91;67.65;102853.59;5060357;28;20040;-59
2023/04/04 08:55:11;;;;;;;7.53;2.53;;;;;;;8.05;63.02;102853.28;5053266;28;20504;-60
2023/04/04 08:57:39;;;;;;;6.53;2.65;;;;;;;8.31;62.61;102836.94;5061557;28;20045;-60
2023/04/04 09:00:09;;;;;;;6.30;2.50;;;;;;;8.54;59.95;102843.41;5060984;28;20048;-59
2023/04/04 09:02:43;;;;;;;6.97;2.70;;;;;;;8.54;60.13;102846.91;5066595;28;20143;-60
2023/04/04 09:05:12;;;;;;;6.75;2.92;;;;;;;8.85;58.14;102840.88;5069272;28;20064;-60
2023/04/04 09:07:41;;;;;;;5.60;2.80;;;;;;;9.03;58.03;102846.56;5067002;28;20052;-60
2023/04/04 09:10:11;;;;;;;7.80;2.90;;;;;;;9.13;57.63;102842.75;5065355;28;20071;-60
2023/04/04 09:12:42;;;;;;;5.32;2.55;;;;;;;9.23;54.00;102848.59;5058576;28;20055;-60
2023/04/04 09:15:11;;;;;;;6.22;2.50;;;;;;;9.25;50.39;102847.66;5061595;28;20519;-60
2023/04/04 09:17:39;;;;;;;5.07;2.65;;;;;;;9.37;52.46;102841.22;5069366;28;20045;-60
2023/04/04 09:20:39;;;;;;;6.03;2.50;;;;;;;9.70;53.20;102837.66;5062993;28;20040;-60
2023/04/04 09:23:12;;;;;;;4.22;2.10;;;;;;;9.62;47.45;102838.72;5061844;28;20036;-60
2023/04/04 09:25:46;;;;;;;5.35;2.10;;;;;;;9.88;50.72;102831.84;5061221;28;20062;-59
2023/04/04 09:28:32;;;;;;;5.15;2.28;;;;;;;10.17;50.71;102832.72;5063028;28;20070;-59
2023/04/04 09:31:03;;;;;;;5.47;1.98;;;;;;;10.17;47.35;102831.84;5063719;28;20045;-59
2023/04/04 09:33:33;;;;;;;6.03;2.00;;;;;;;10.30;45.34;102835.81;5063928;28;20036;-59
2023/04/04 09:36:06;;;;;;;8.80;2.20;;;;;;;10.40;47.22;102821.50;5062633;28;20036;-59
2023/04/04 09:38:37;;;;;;;6.05;2.63;;;;;;;10.35;46.55;102830.41;5063637;28;20045;-61
2023/04/04 09:41:09;;;;;;;7.35;2.47;;;;;;;10.24;46.91;102828.09;5062554;28;20041;-60
2023/04/04 09:43:39;;;;;;;5.07;1.93;;;;;;;10.44;47.01;102836.25;5062742;28;20052;-59
2023/04/04 09:46:07;;;;;;;6.30;2.03;;;;;;;10.37;45.99;102836.50;5063588;28;20064;-60
2023/04/04 09:48:36;;;;;;;6.05;1.90;;;;;;;10.54;44.83;102828.03;5058963;28;20063;-60
2023/04/04 09:51:05;;;;;;;5.45;2.10;;;;;;;10.78;45.08;102834.25;5059884;28;20055;-60
2023/04/04 09:53:35;;;;;;;5.68;1.95;;;;;;;10.47;43.69;102835.28;5061703;28;20045;-60
2023/04/04 09:56:05;;;;;;;5.35;1.92;;;;;;;10.85;45.63;102830.47;5054525;28;20541;-60
2023/04/04 09:58:36;;;;;;;6.15;2.17;;;;;;;10.94;45.83;102829.31;5067364;28;20055;-62
2023/04/04 10:01:13;;;;;;;6.07;2.25;;;;;;;11.30;46.57;102821.88;5053756;28;20037;-61
2023/04/04 10:03:41;;;;;;;6.95;2.60;;;;;;;11.27;44.65;102819.34;5057692;28;20103;-61
2023/04/04 10:06:10;;;;;;;6.07;2.58;;;;;;;11.67;47.20;102825.75;5059403;28;20567;-61
2023/04/04 10:08:42;;;;;;;7.03;2.78;;;;;;;11.46;44.41;102816.88;5059073;28;20083;-61
2023/04/04 10:11:10;;;;;;;7.93;2.70;;;;;;;11.45;44.85;102812.56;5061255;28;20944;-61
2023/04/04 10:13:43;;;;;;;5.47;2.70;;;;;;;11.30;43.43;102821.00;5057956;28;20044;-60
2023/04/04 10:16:11;;;;;;;6.45;2.60;;;;;;;11.38;44.73;102818.94;5055636;28;20071;-61
2023/04/04 10:18:40;;;;;;;4.38;2.20;;;;;;;11.64;47.38;102814.47;5056651;28;20423;-61
2023/04/04 10:21:08;;;;;;;5.63;2.22;;;;;;;11.81;45.16;102811.19;5057232;28;20044;-61
2023/04/04 10:23:41;;;;;;;9.48;2.85;;;;;;;11.81;43.87;102808.56;5057961;28;20551;-60
2023/04/04 10:26:11;;;;;;;6.60;2.63;;;;;;;11.74;44.58;102805.31;5056172;28;20546;-62
2023/04/04 10:28:42;;;;;;;6.10;2.60;;;;;;;11.87;44.46;102805.66;5057792;28;20057;-61
2023/04/04 10:31:17;;;;;;;7.07;2.70;;;;;;;11.80;44.03;102798.91;5055604;28;20199;-61
2023/04/04 10:33:52;;;;;;;7.25;2.75;;;;;;;11.94;46.22;102798.38;5063231;28;20557;-62
2023/04/04 10:36:23;;;;;;;8.90;2.80;;;;;;;12.23;45.10;102791.97;5058828;28;20110;-61
2023/04/04 10:39:03;;;;;;;7.00;3.03;;;;;;;12.34;44.18;102789.72;5058057;28;20106;-61
2023/04/04 10:41:32;;;;;;;6.97;2.95;;;;;;;12.36;44.17;102794.94;5072332;28;20541;-61
2023/04/04 10:44:13;;;;;;;8.57;3.08;;;;;;;12.31;44.24;102795.13;5075911;28;20040;-61
2023/04/04 10:46:43;;;;;;;6.05;2.78;;;;;;;12.28;43.96;102794.41;5075757;28;20139;-61
2023/04/04 10:49:12;;;;;;;8.07;3.30;;;;;;;12.74;44.78;102788.97;5074768;28;20045;-62
2023/04/04 10:51:41;;;;;;;7.55;2.72;;;;;;;13.20;43.55;102786.91;5070939;28;20045;-61
2023/04/04 10:54:23;;;;;;;8.50;3.08;;;;;;;13.32;43.73;102782.84;5057186;28;20049;-62
2023/04/04 10:56:52;;;;;;;6.47;2.42;;;;;;;13.54;41.27;102788.03;5075575;28;20040;-61
2023/04/04 10:59:24;;;;;;;7.05;2.97;;;;;;;13.75;42.25;102774.72;5075537;28;20531;-61
2023/04/04 11:01:55;;;;;;;;;;;;;;;13.46;40.99;102777.81;5074947;28;20549;-61
2023/04/04 11:04:31;;;;;;;7.88;2.70;;;;;;;13.82;41.46;102781.41;5060614;28;20029;-62
2023/04/04 11:07:14;;;;;;;7.82;2.53;;;;;;;13.93;42.52;102772.97;5065803;28;20049;-62
2023/04/04 11:09:50;;;;;;;;;;;;;;;14.06;41.76;102771.44;5070461;28;20150;-62
2023/04/04 11:12:22;;;;;;;8.38;3.00;;;;;;;13.94;39.34;102762.31;5066030;28;20368;-61
2023/04/04 11:15:08;;;;;;;6.07;2.83;;;;;;;13.58;41.95;102762.28;5064011;28;20041;-61
2023/04/04 11:17:54;;;;;;;7.47;2.80;;;;;;;13.57;41.50;102766.72;5049408;28;20738;-62
2023/04/04 11:20:23;;;;;;;6.10;2.65;;;;;;;13.71;40.13;102758.13;5058742;28;20049;-61
2023/04/04 11:23:02;;;;;;;7.50;2.95;;;;;;;13.87;40.78;102758.25;5060206;28;20067;-62
2023/04/04 11:25:36;;;;;;;8.85;3.00;;;;;;;13.94;39.04;102753.53;5066283;28;20032;-61
2023/04/04 11:28:24;;;;;;;5.30;2.67;;;;;;;14.03;39.94;102748.63;5062190;28;20040;-61
2023/04/04 11:31:25;;;;;;;7.65;2.40;;;;;;;14.11;40.75;102734.16;5065178;28;20063;-62
2023/04/04 11:33:58;;;;;;;6.45;2.78;;;;;;;14.04;39.53;102736.25;5059784;28;20442;-62
2023/04/04 11:36:53;;;;;;;6.35;2.58;;;;;;;14.17;39.28;102733.88;5070933;28;20052;-61